sensor_id;sensor_type;location;lat;lon;timestamp;P1;durP1;ratioP1;P2;durP2;ratioP2
44046;SDS011;29713;-33.888;151.150;2023-08-20T00:01:23;0.20;;;0.20;;
44046;SDS011;29713;-33.888;151.150;2023-08-20T00:03:52;0.43;;;0.30;;
44046;SDS011;29713;-33.888;151.150;2023-08-20T00:06:21;0.28;;;0.20;;
44046;SDS011;29713;-33.888;151.150;2023-08-20T00:08:49;0.20;;;0.20;;
44046;SDS011;29713;-33.888;151.150;2023-08-20T00:11:16;0.77;;;0.38;;
44046;SDS011;29713;-33.888;151.150;2023-08-20T00:13:43;0.35;;;0.20;;
44046;SDS011;29713;-33.888;151.150;2023-08-20T00:16:11;0.30;;;0.20;;
44046;SDS011;29713;-33.888;151.150;2023-08-20T00:18:39;0.95;;;0.32;;
44046;SDS011;29713;-33.888;151.150;2023-08-20T00:21:07;0.90;;;0.17;;
44046;SDS011;29713;-33.888;151.150;2023-08-20T00:23:35;1.75;;;0.20;;
44046;SDS011;29713;-33.888;151.150;2023-08-20T00:26:03;7.13;;;0.40;;
44046;SDS011;29713;-33.888;151.150;2023-08-20T00:28:30;0.68;;;0.20;;
44046;SDS011;29713;-33.888;151.150;2023-08-20T00:31:02;2.15;;;0.30;;
44046;SDS011;29713;-33.888;151.150;2023-08-20T00:33:30;0.30;;;0.20;;
44046;SDS011;29713;-33.888;151.150;2023-08-20T00:35:58;0.08;;;0.08;;
44046;SDS011;29713;-33.888;151.150;2023-08-20T00:38:25;0.25;;;0.20;;
44046;SDS011;29713;-33.888;151.150;2023-08-20T00:40:53;0.20;;;0.20;;
44046;SDS011;29713;-33.888;151.150;2023-08-20T00:43:20;0.63;;;0.28;;
44046;SDS011;29713;-33.888;151.150;2023-08-20T00:45:47;0.55;;;0.20;;
44046;SDS011;29713;-33.888;151.150;2023-08-20T00:48:15;0.10;;;0.10;;
44046;SDS011;29713;-33.888;151.150;2023-08-20T00:50:43;0.40;;;0.20;;
44046;SDS011;29713;-33.888;151.150;2023-08-20T00:53:10;0.13;;;0.13;;
44046;SDS011;29713;-33.888;151.150;2023-08-20T00:55:40;0.85;;;0.20;;
44046;SDS011;29713;-33.888;151.150;2023-08-20T00:58:09;0.20;;;0.10;;
44046;SDS011;29713;-33.888;151.150;2023-08-20T01:00:37;0.13;;;0.13;;
44046;SDS011;29713;-33.888;151.150;2023-08-20T01:03:04;0.22;;;0.20;;
44046;SDS011;29713;-33.888;151.150;2023-08-20T01:05:33;0.20;;;0.10;;
44046;SDS011;29713;-33.888;151.150;2023-08-20T01:13:36;0.10;;;0.10;;
44046;SDS011;29713;-33.888;151.150;2023-08-20T01:16:03;0.28;;;0.20;;
44046;SDS011;29713;-33.888;151.150;2023-08-20T01:18:31;0.57;;;0.30;;
44046;SDS011;29713;-33.888;151.150;2023-08-20T01:20:58;0.28;;;0.28;;
44046;SDS011;29713;-33.888;151.150;2023-08-20T01:23:40;0.30;;;0.30;;
44046;SDS011;29713;-33.888;151.150;2023-08-20T01:28:52;0.50;;;0.28;;
44046;SDS011;29713;-33.888;151.150;2023-08-20T01:31:21;0.60;;;0.40;;
44046;SDS011;29713;-33.888;151.150;2023-08-20T01:33:52;0.70;;;0.50;;
44046;SDS011;29713;-33.888;151.150;2023-08-20T01:36:19;1.15;;;0.50;;
44046;SDS011;29713;-33.888;151.150;2023-08-20T01:38:47;0.30;;;0.30;;
44046;SDS011;29713;-33.888;151.150;2023-08-20T01:41:15;0.43;;;0.32;;
44046;SDS011;29713;-33.888;151.150;2023-08-20T01:43:42;0.30;;;0.30;;
44046;SDS011;29713;-33.888;151.150;2023-08-20T01:46:09;0.85;;;0.30;;
44046;SDS011;29713;-33.888;151.150;2023-08-20T01:48:38;0.30;;;0.30;;
44046;SDS011;29713;-33.888;151.150;2023-08-20T01:51:05;0.50;;;0.40;;
44046;SDS011;29713;-33.888;151.150;2023-08-20T01:53:34;0.57;;;0.40;;
44046;SDS011;29713;-33.888;151.150;2023-08-20T01:56:01;1.02;;;0.50;;
44046;SDS011;29713;-33.888;151.150;2023-08-20T01:58:28;0.35;;;0.30;;
44046;SDS011;29713;-33.888;151.150;2023-08-20T02:00:57;0.38;;;0.30;;
44046;SDS011;29713;-33.888;151.150;2023-08-20T02:03:25;0.40;;;0.32;;
44046;SDS011;29713;-33.888;151.150;2023-08-20T02:05:52;1.15;;;0.40;;
44046;SDS011;29713;-33.888;151.150;2023-08-20T02:08:20;1.00;;;0.40;;
44046;SDS011;29713;-33.888;151.150;2023-08-20T02:10:47;0.30;;;0.30;;
44046;SDS011;29713;-33.888;151.150;2023-08-20T02:13:14;1.90;;;0.45;;
44046;SDS011;29713;-33.888;151.150;2023-08-20T02:15:42;0.60;;;0.40;;
44046;SDS011;29713;-33.888;151.150;2023-08-20T02:18:09;0.40;;;0.40;;
44046;SDS011;29713;-33.888;151.150;2023-08-20T02:20:36;0.75;;;0.25;;
44046;SDS011;29713;-33.888;151.150;2023-08-20T02:23:04;0.10;;;0.10;;
44046;SDS011;29713;-33.888;151.150;2023-08-20T02:25:31;0.20;;;0.20;;
44046;SDS011;29713;-33.888;151.150;2023-08-20T02:27:58;0.40;;;0.20;;
44046;SDS011;29713;-33.888;151.150;2023-08-20T02:30:26;0.40;;;0.30;;
44046;SDS011;29713;-33.888;151.150;2023-08-20T02:32:53;0.40;;;0.40;;
44046;SDS011;29713;-33.888;151.150;2023-08-20T02:35:20;0.50;;;0.30;;
44046;SDS011;29713;-33.888;151.150;2023-08-20T02:37:47;0.40;;;0.40;;
44046;SDS011;29713;-33.888;151.150;2023-08-20T02:40:15;0.40;;;0.32;;
44046;SDS011;29713;-33.888;151.150;2023-08-20T02:42:42;0.73;;;0.40;;
44046;SDS011;29713;-33.888;151.150;2023-08-20T02:45:09;0.30;;;0.30;;
44046;SDS011;29713;-33.888;151.150;2023-08-20T02:47:37;0.47;;;0.47;;
44046;SDS011;29713;-33.888;151.150;2023-08-20T02:50:04;0.50;;;0.40;;
44046;SDS011;29713;-33.888;151.150;2023-08-20T02:52:32;0.20;;;0.20;;
44046;SDS011;29713;-33.888;151.150;2023-08-20T02:54:59;0.40;;;0.40;;
44046;SDS011;29713;-33.888;151.150;2023-08-20T02:57:26;0.47;;;0.40;;
44046;SDS011;29713;-33.888;151.150;2023-08-20T02:59:53;0.40;;;0.40;;
44046;SDS011;29713;-33.888;151.150;2023-08-20T03:02:21;0.20;;;0.20;;
44046;SDS011;29713;-33.888;151.150;2023-08-20T03:04:48;0.30;;;0.25;;
44046;SDS011;29713;-33.888;151.150;2023-08-20T03:07:16;1.65;;;0.30;;
44046;SDS011;29713;-33.888;151.150;2023-08-20T03:09:43;0.30;;;0.30;;
44046;SDS011;29713;-33.888;151.150;2023-08-20T03:12:10;0.73;;;0.50;;
44046;SDS011;29713;-33.888;151.150;2023-08-20T03:14:38;0.50;;;0.50;;
44046;SDS011;29713;-33.888;151.150;2023-08-20T03:17:05;0.30;;;0.30;;
44046;SDS011;29713;-33.888;151.150;2023-08-20T03:19:33;1.90;;;0.40;;
44046;SDS011;29713;-33.888;151.150;2023-08-20T03:22:01;0.30;;;0.30;;
44046;SDS011;29713;-33.888;151.150;2023-08-20T03:24:28;0.20;;;0.20;;
44046;SDS011;29713;-33.888;151.150;2023-08-20T03:26:55;0.30;;;0.30;;
44046;SDS011;29713;-33.888;151.150;2023-08-20T03:34:16;0.43;;;0.40;;
44046;SDS011;29713;-33.888;151.150;2023-08-20T03:36:43;0.50;;;0.50;;
44046;SDS011;29713;-33.888;151.150;2023-08-20T03:39:11;0.63;;;0.50;;
44046;SDS011;29713;-33.888;151.150;2023-08-20T03:41:38;0.40;;;0.40;;
44046;SDS011;29713;-33.888;151.150;2023-08-20T03:44:06;1.10;;;0.32;;
44046;SDS011;29713;-33.888;151.150;2023-08-20T03:46:33;0.50;;;0.50;;
44046;SDS011;29713;-33.888;151.150;2023-08-20T03:49:00;0.82;;;0.52;;
44046;SDS011;29713;-33.888;151.150;2023-08-20T03:51:28;0.40;;;0.40;;
44046;SDS011;29713;-33.888;151.150;2023-08-20T03:53:55;0.47;;;0.47;;
44046;SDS011;29713;-33.888;151.150;2023-08-20T03:56:23;0.38;;;0.38;;
44046;SDS011;29713;-33.888;151.150;2023-08-20T03:58:50;1.10;;;0.70;;
44046;SDS011;29713;-33.888;151.150;2023-08-20T04:01:18;0.45;;;0.45;;
44046;SDS011;29713;-33.888;151.150;2023-08-20T04:03:46;0.50;;;0.40;;
44046;SDS011;29713;-33.888;151.150;2023-08-20T04:06:14;1.58;;;0.82;;
44046;SDS011;29713;-33.888;151.150;2023-08-20T04:08:41;1.45;;;0.57;;
44046;SDS011;29713;-33.888;151.150;2023-08-20T04:11:08;1.05;;;0.43;;
44046;SDS011;29713;-33.888;151.150;2023-08-20T04:13:36;1.00;;;0.60;;
44046;SDS011;29713;-33.888;151.150;2023-08-20T04:16:03;1.30;;;0.40;;
44046;SDS011;29713;-33.888;151.150;2023-08-20T04:18:30;0.93;;;0.40;;
44046;SDS011;29713;-33.888;151.150;2023-08-20T04:20:58;1.08;;;0.40;;
44046;SDS011;29713;-33.888;151.150;2023-08-20T04:23:25;0.38;;;0.38;;
44046;SDS011;29713;-33.888;151.150;2023-08-20T04:25:52;1.85;;;0.70;;
44046;SDS011;29713;-33.888;151.150;2023-08-20T04:28:20;1.65;;;0.50;;
44046;SDS011;29713;-33.888;151.150;2023-08-20T04:30:47;0.77;;;0.32;;
44046;SDS011;29713;-33.888;151.150;2023-08-20T04:33:15;1.02;;;0.63;;
44046;SDS011;29713;-33.888;151.150;2023-08-20T04:35:42;2.55;;;0.90;;
44046;SDS011;29713;-33.888;151.150;2023-08-20T04:38:09;0.80;;;0.60;;
44046;SDS011;29713;-33.888;151.150;2023-08-20T04:40:37;0.60;;;0.30;;
44046;SDS011;29713;-33.888;151.150;2023-08-20T04:43:04;0.57;;;0.38;;
44046;SDS011;29713;-33.888;151.150;2023-08-20T04:45:31;0.98;;;0.40;;
44046;SDS011;29713;-33.888;151.150;2023-08-20T04:47:59;0.82;;;0.50;;
44046;SDS011;29713;-33.888;151.150;2023-08-20T04:50:26;1.42;;;0.32;;
44046;SDS011;29713;-33.888;151.150;2023-08-20T04:52:54;0.47;;;0.28;;
44046;SDS011;29713;-33.888;151.150;2023-08-20T04:55:21;2.42;;;0.80;;
44046;SDS011;29713;-33.888;151.150;2023-08-20T04:57:48;1.52;;;0.65;;
44046;SDS011;29713;-33.888;151.150;2023-08-20T05:00:15;0.45;;;0.40;;
44046;SDS011;29713;-33.888;151.150;2023-08-20T05:02:43;0.50;;;0.35;;
44046;SDS011;29713;-33.888;151.150;2023-08-20T05:05:11;0.47;;;0.28;;
44046;SDS011;29713;-33.888;151.150;2023-08-20T05:07:38;1.27;;;0.35;;
44046;SDS011;29713;-33.888;151.150;2023-08-20T05:10:07;1.52;;;0.30;;
44046;SDS011;29713;-33.888;151.150;2023-08-20T05:12:35;0.95;;;0.47;;
44046;SDS011;29713;-33.888;151.150;2023-08-20T05:15:02;0.88;;;0.40;;
44046;SDS011;29713;-33.888;151.150;2023-08-20T05:17:30;0.52;;;0.38;;
44046;SDS011;29713;-33.888;151.150;2023-08-20T05:19:57;0.60;;;0.38;;
44046;SDS011;29713;-33.888;151.150;2023-08-20T05:22:25;0.22;;;0.20;;
44046;SDS011;29713;-33.888;151.150;2023-08-20T05:24:52;0.88;;;0.40;;
44046;SDS011;29713;-33.888;151.150;2023-08-20T05:27:19;0.40;;;0.40;;
44046;SDS011;29713;-33.888;151.150;2023-08-20T05:29:47;1.10;;;0.45;;
44046;SDS011;29713;-33.888;151.150;2023-08-20T05:32:14;1.38;;;0.30;;
44046;SDS011;29713;-33.888;151.150;2023-08-20T05:34:42;1.02;;;0.30;;
44046;SDS011;29713;-33.888;151.150;2023-08-20T05:37:09;0.25;;;0.25;;
44046;SDS011;29713;-33.888;151.150;2023-08-20T05:39:37;0.30;;;0.20;;
44046;SDS011;29713;-33.888;151.150;2023-08-20T05:42:07;0.38;;;0.38;;
44046;SDS011;29713;-33.888;151.150;2023-08-20T05:44:34;1.65;;;0.40;;
44046;SDS011;29713;-33.888;151.150;2023-08-20T05:47:02;0.70;;;0.55;;
44046;SDS011;29713;-33.888;151.150;2023-08-20T05:49:31;0.82;;;0.40;;
44046;SDS011;29713;-33.888;151.150;2023-08-20T05:51:58;0.20;;;0.20;;
44046;SDS011;29713;-33.888;151.150;2023-08-20T05:54:25;0.40;;;0.30;;
44046;SDS011;29713;-33.888;151.150;2023-08-20T05:56:52;0.77;;;0.30;;
44046;SDS011;29713;-33.888;151.150;2023-08-20T05:59:20;1.13;;;0.40;;
44046;SDS011;29713;-33.888;151.150;2023-08-20T06:01:47;1.70;;;0.68;;
44046;SDS011;29713;-33.888;151.150;2023-08-20T06:04:14;0.40;;;0.30;;
44046;SDS011;29713;-33.888;151.150;2023-08-20T06:06:43;2.33;;;0.40;;
44046;SDS011;29713;-33.888;151.150;2023-08-20T06:09:11;0.55;;;0.30;;
44046;SDS011;29713;-33.888;151.150;2023-08-20T06:11:38;0.70;;;0.60;;
44046;SDS011;29713;-33.888;151.150;2023-08-20T06:14:06;2.58;;;0.40;;
44046;SDS011;29713;-33.888;151.150;2023-08-20T06:16:33;0.30;;;0.20;;
44046;SDS011;29713;-33.888;151.150;2023-08-20T06:19:03;0.30;;;0.28;;
44046;SDS011;29713;-33.888;151.150;2023-08-20T06:21:30;0.30;;;0.30;;
44046;SDS011;29713;-33.888;151.150;2023-08-20T06:23:58;0.40;;;0.40;;
44046;SDS011;29713;-33.888;151.150;2023-08-20T06:26:25;0.20;;;0.20;;
44046;SDS011;29713;-33.888;151.150;2023-08-20T06:28:52;0.43;;;0.25;;
44046;SDS011;29713;-33.888;151.150;2023-08-20T06:31:19;1.02;;;0.30;;
44046;SDS011;29713;-33.888;151.150;2023-08-20T06:33:47;0.95;;;0.40;;
44046;SDS011;29713;-33.888;151.150;2023-08-20T06:36:14;1.17;;;0.50;;
44046;SDS011;29713;-33.888;151.150;2023-08-20T06:38:41;0.73;;;0.30;;
44046;SDS011;29713;-33.888;151.150;2023-08-20T06:41:09;0.95;;;0.45;;
44046;SDS011;29713;-33.888;151.150;2023-08-20T06:43:36;3.97;;;1.15;;
44046;SDS011;29713;-33.888;151.150;2023-08-20T06:46:03;1.08;;;0.43;;
44046;SDS011;29713;-33.888;151.150;2023-08-20T06:48:31;0.40;;;0.40;;
44046;SDS011;29713;-33.888;151.150;2023-08-20T06:50:58;0.30;;;0.30;;
44046;SDS011;29713;-33.888;151.150;2023-08-20T06:53:33;1.40;;;0.40;;
44046;SDS011;29713;-33.888;151.150;2023-08-20T06:56:00;1.58;;;0.32;;
44046;SDS011;29713;-33.888;151.150;2023-08-20T06:58:28;0.30;;;0.30;;
44046;SDS011;29713;-33.888;151.150;2023-08-20T07:00:55;1.35;;;0.70;;
44046;SDS011;29713;-33.888;151.150;2023-08-20T07:03:41;1.23;;;0.50;;
44046;SDS011;29713;-33.888;151.150;2023-08-20T07:06:10;0.88;;;0.30;;
44046;SDS011;29713;-33.888;151.150;2023-08-20T07:08:40;0.73;;;0.50;;
44046;SDS011;29713;-33.888;151.150;2023-08-20T07:11:07;3.10;;;0.50;;
44046;SDS011;29713;-33.888;151.150;2023-08-20T07:13:35;2.60;;;0.30;;
44046;SDS011;29713;-33.888;151.150;2023-08-20T07:16:02;2.30;;;0.50;;
44046;SDS011;29713;-33.888;151.150;2023-08-20T07:18:30;1.63;;;0.50;;
44046;SDS011;29713;-33.888;151.150;2023-08-20T07:20:57;0.55;;;0.43;;
44046;SDS011;29713;-33.888;151.150;2023-08-20T07:23:24;4.50;;;0.75;;
44046;SDS011;29713;-33.888;151.150;2023-08-20T07:26:03;0.50;;;0.45;;
44046;SDS011;29713;-33.888;151.150;2023-08-20T07:28:34;1.05;;;0.70;;
44046;SDS011;29713;-33.888;151.150;2023-08-20T07:31:20;1.73;;;0.68;;
44046;SDS011;29713;-33.888;151.150;2023-08-20T07:33:47;1.27;;;0.60;;
44046;SDS011;29713;-33.888;151.150;2023-08-20T07:36:16;1.77;;;0.50;;
44046;SDS011;29713;-33.888;151.150;2023-08-20T07:38:44;1.23;;;0.60;;
44046;SDS011;29713;-33.888;151.150;2023-08-20T07:41:11;1.15;;;0.40;;
44046;SDS011;29713;-33.888;151.150;2023-08-20T07:43:39;1.75;;;0.70;;
44046;SDS011;29713;-33.888;151.150;2023-08-20T07:46:07;1.60;;;0.98;;
44046;SDS011;29713;-33.888;151.150;2023-08-20T07:48:35;2.13;;;0.80;;
44046;SDS011;29713;-33.888;151.150;2023-08-20T07:51:03;2.30;;;0.60;;
44046;SDS011;29713;-33.888;151.150;2023-08-20T07:53:31;1.33;;;0.85;;
44046;SDS011;29713;-33.888;151.150;2023-08-20T07:55:58;1.52;;;0.70;;
44046;SDS011;29713;-33.888;151.150;2023-08-20T07:58:26;2.17;;;0.60;;
44046;SDS011;29713;-33.888;151.150;2023-08-20T08:00:54;1.65;;;0.77;;
44046;SDS011;29713;-33.888;151.150;2023-08-20T08:03:24;1.38;;;0.70;;
44046;SDS011;29713;-33.888;151.150;2023-08-20T08:05:54;2.85;;;1.20;;
44046;SDS011;29713;-33.888;151.150;2023-08-20T08:08:22;4.25;;;0.77;;
44046;SDS011;29713;-33.888;151.150;2023-08-20T08:10:50;3.00;;;1.15;;
44046;SDS011;29713;-33.888;151.150;2023-08-20T08:13:19;2.88;;;1.10;;
44046;SDS011;29713;-33.888;151.150;2023-08-20T08:15:48;3.13;;;1.10;;
44046;SDS011;29713;-33.888;151.150;2023-08-20T08:18:18;2.75;;;1.40;;
44046;SDS011;29713;-33.888;151.150;2023-08-20T08:20:46;1.75;;;1.10;;
44046;SDS011;29713;-33.888;151.150;2023-08-20T08:23:13;3.13;;;1.45;;
44046;SDS011;29713;-33.888;151.150;2023-08-20T08:25:40;1.77;;;1.08;;
44046;SDS011;29713;-33.888;151.150;2023-08-20T08:28:08;3.60;;;1.20;;
44046;SDS011;29713;-33.888;151.150;2023-08-20T08:30:35;1.40;;;0.90;;
44046;SDS011;29713;-33.888;151.150;2023-08-20T08:33:03;2.90;;;1.10;;
44046;SDS011;29713;-33.888;151.150;2023-08-20T08:35:30;2.08;;;1.10;;
44046;SDS011;29713;-33.888;151.150;2023-08-20T08:37:58;2.10;;;0.85;;
44046;SDS011;29713;-33.888;151.150;2023-08-20T08:40:27;2.92;;;1.30;;
44046;SDS011;29713;-33.888;151.150;2023-08-20T08:42:56;1.73;;;1.05;;
44046;SDS011;29713;-33.888;151.150;2023-08-20T08:45:23;3.17;;;1.02;;
44046;SDS011;29713;-33.888;151.150;2023-08-20T08:47:52;2.72;;;1.13;;
44046;SDS011;29713;-33.888;151.150;2023-08-20T08:50:21;2.67;;;1.50;;
44046;SDS011;29713;-33.888;151.150;2023-08-20T08:52:49;2.38;;;1.27;;
44046;SDS011;29713;-33.888;151.150;2023-08-20T08:55:18;3.47;;;1.20;;
44046;SDS011;29713;-33.888;151.150;2023-08-20T08:57:46;2.83;;;1.30;;
44046;SDS011;29713;-33.888;151.150;2023-08-20T09:00:13;2.97;;;1.50;;
44046;SDS011;29713;-33.888;151.150;2023-08-20T09:02:41;4.05;;;1.30;;
44046;SDS011;29713;-33.888;151.150;2023-08-20T09:05:08;4.28;;;1.23;;
44046;SDS011;29713;-33.888;151.150;2023-08-20T09:07:40;2.92;;;1.27;;
44046;SDS011;29713;-33.888;151.150;2023-08-20T09:10:09;1.70;;;0.90;;
44046;SDS011;29713;-33.888;151.150;2023-08-20T09:12:36;2.53;;;1.50;;
44046;SDS011;29713;-33.888;151.150;2023-08-20T09:15:09;3.20;;;1.30;;
44046;SDS011;29713;-33.888;151.150;2023-08-20T09:17:37;2.00;;;1.20;;
44046;SDS011;29713;-33.888;151.150;2023-08-20T09:20:07;2.60;;;1.60;;
44046;SDS011;29713;-33.888;151.150;2023-08-20T09:22:35;4.47;;;2.22;;
44046;SDS011;29713;-33.888;151.150;2023-08-20T09:25:03;3.78;;;1.73;;
44046;SDS011;29713;-33.888;151.150;2023-08-20T09:27:30;3.70;;;1.70;;
44046;SDS011;29713;-33.888;151.150;2023-08-20T09:30:06;2.80;;;1.25;;
44046;SDS011;29713;-33.888;151.150;2023-08-20T09:32:34;2.40;;;1.50;;
44046;SDS011;29713;-33.888;151.150;2023-08-20T09:35:01;3.08;;;1.30;;
44046;SDS011;29713;-33.888;151.150;2023-08-20T09:37:29;3.25;;;1.13;;
44046;SDS011;29713;-33.888;151.150;2023-08-20T09:39:58;3.58;;;1.52;;
44046;SDS011;29713;-33.888;151.150;2023-08-20T09:42:26;4.65;;;1.50;;
44046;SDS011;29713;-33.888;151.150;2023-08-20T09:44:58;4.57;;;1.70;;
44046;SDS011;29713;-33.888;151.150;2023-08-20T09:47:29;2.95;;;1.48;;
44046;SDS011;29713;-33.888;151.150;2023-08-20T09:50:02;3.17;;;1.23;;
44046;SDS011;29713;-33.888;151.150;2023-08-20T09:52:40;3.20;;;1.70;;
44046;SDS011;29713;-33.888;151.150;2023-08-20T09:55:33;3.35;;;1.65;;
44046;SDS011;29713;-33.888;151.150;2023-08-20T09:58:01;3.67;;;1.20;;
44046;SDS011;29713;-33.888;151.150;2023-08-20T10:00:29;2.17;;;1.30;;
44046;SDS011;29713;-33.888;151.150;2023-08-20T10:02:58;4.43;;;1.73;;
44046;SDS011;29713;-33.888;151.150;2023-08-20T10:05:27;3.95;;;1.60;;
44046;SDS011;29713;-33.888;151.150;2023-08-20T10:07:55;3.37;;;1.60;;
44046;SDS011;29713;-33.888;151.150;2023-08-20T10:10:23;3.20;;;1.40;;
44046;SDS011;29713;-33.888;151.150;2023-08-20T10:12:51;2.90;;;1.65;;
44046;SDS011;29713;-33.888;151.150;2023-08-20T10:15:19;2.08;;;1.42;;
44046;SDS011;29713;-33.888;151.150;2023-08-20T10:17:49;3.75;;;1.35;;
44046;SDS011;29713;-33.888;151.150;2023-08-20T10:20:17;3.47;;;1.35;;
44046;SDS011;29713;-33.888;151.150;2023-08-20T10:22:45;1.65;;;1.25;;
44046;SDS011;29713;-33.888;151.150;2023-08-20T10:25:23;3.03;;;1.40;;
44046;SDS011;29713;-33.888;151.150;2023-08-20T10:27:51;2.75;;;1.33;;
44046;SDS011;29713;-33.888;151.150;2023-08-20T10:30:22;3.03;;;1.20;;
44046;SDS011;29713;-33.888;151.150;2023-08-20T10:32:53;2.30;;;1.30;;
44046;SDS011;29713;-33.888;151.150;2023-08-20T10:38:02;2.47;;;1.40;;
44046;SDS011;29713;-33.888;151.150;2023-08-20T10:43:29;3.63;;;2.05;;
44046;SDS011;29713;-33.888;151.150;2023-08-20T10:46:07;4.63;;;1.90;;
44046;SDS011;29713;-33.888;151.150;2023-08-20T10:48:40;5.83;;;2.30;;
44046;SDS011;29713;-33.888;151.150;2023-08-20T10:56:40;5.77;;;2.80;;
44046;SDS011;29713;-33.888;151.150;2023-08-20T10:59:21;7.43;;;3.20;;
44046;SDS011;29713;-33.888;151.150;2023-08-20T11:01:53;7.55;;;3.55;;
44046;SDS011;29713;-33.888;151.150;2023-08-20T11:04:23;9.03;;;3.80;;
44046;SDS011;29713;-33.888;151.150;2023-08-20T11:06:54;12.53;;;4.87;;
44046;SDS011;29713;-33.888;151.150;2023-08-20T11:09:23;10.20;;;4.60;;
44046;SDS011;29713;-33.888;151.150;2023-08-20T11:11:51;9.97;;;4.73;;
44046;SDS011;29713;-33.888;151.150;2023-08-20T11:14:20;11.50;;;4.70;;
44046;SDS011;29713;-33.888;151.150;2023-08-20T11:16:48;9.27;;;4.60;;
44046;SDS011;29713;-33.888;151.150;2023-08-20T11:19:22;9.47;;;4.30;;
44046;SDS011;29713;-33.888;151.150;2023-08-20T11:21:50;5.57;;;3.40;;
44046;SDS011;29713;-33.888;151.150;2023-08-20T11:24:18;7.47;;;3.17;;
44046;SDS011;29713;-33.888;151.150;2023-08-20T11:26:46;5.27;;;2.50;;
44046;SDS011;29713;-33.888;151.150;2023-08-20T11:29:14;3.87;;;2.50;;
44046;SDS011;29713;-33.888;151.150;2023-08-20T11:31:49;4.40;;;2.50;;
44046;SDS011;29713;-33.888;151.150;2023-08-20T11:34:18;7.30;;;2.47;;
44046;SDS011;29713;-33.888;151.150;2023-08-20T11:36:45;3.70;;;2.07;;
44046;SDS011;29713;-33.888;151.150;2023-08-20T11:39:17;4.20;;;2.40;;
44046;SDS011;29713;-33.888;151.150;2023-08-20T11:41:44;2.73;;;1.70;;
44046;SDS011;29713;-33.888;151.150;2023-08-20T11:44:18;3.47;;;1.93;;
44046;SDS011;29713;-33.888;151.150;2023-08-20T11:46:51;3.10;;;1.70;;
44046;SDS011;29713;-33.888;151.150;2023-08-20T11:49:26;3.87;;;1.80;;
44046;SDS011;29713;-33.888;151.150;2023-08-20T11:51:55;3.90;;;2.60;;
44046;SDS011;29713;-33.888;151.150;2023-08-20T11:54:22;16.33;;;7.90;;
44046;SDS011;29713;-33.888;151.150;2023-08-20T11:56:51;7.93;;;4.30;;
44046;SDS011;29713;-33.888;151.150;2023-08-20T11:59:27;10.40;;;4.70;;
44046;SDS011;29713;-33.888;151.150;2023-08-20T12:01:56;10.30;;;4.37;;
44046;SDS011;29713;-33.888;151.150;2023-08-20T12:04:26;6.37;;;3.30;;
44046;SDS011;29713;-33.888;151.150;2023-08-20T12:07:02;5.67;;;2.77;;
44046;SDS011;29713;-33.888;151.150;2023-08-20T12:09:30;4.13;;;2.50;;
44046;SDS011;29713;-33.888;151.150;2023-08-20T12:11:58;3.13;;;2.10;;
44046;SDS011;29713;-33.888;151.150;2023-08-20T12:14:26;4.53;;;2.30;;
44046;SDS011;29713;-33.888;151.150;2023-08-20T12:16:54;6.27;;;2.40;;
44046;SDS011;29713;-33.888;151.150;2023-08-20T12:19:22;5.77;;;2.00;;
44046;SDS011;29713;-33.888;151.150;2023-08-20T12:21:50;4.03;;;2.07;;
44046;SDS011;29713;-33.888;151.150;2023-08-20T12:24:17;3.83;;;2.43;;
44046;SDS011;29713;-33.888;151.150;2023-08-20T12:26:48;7.50;;;3.37;;
44046;SDS011;29713;-33.888;151.150;2023-08-20T12:29:15;10.40;;;6.40;;
44046;SDS011;29713;-33.888;151.150;2023-08-20T12:31:43;9.37;;;6.57;;
44046;SDS011;29713;-33.888;151.150;2023-08-20T12:34:10;10.17;;;7.13;;
44046;SDS011;29713;-33.888;151.150;2023-08-20T12:36:37;8.40;;;5.83;;
44046;SDS011;29713;-33.888;151.150;2023-08-20T12:39:05;8.13;;;4.90;;
44046;SDS011;29713;-33.888;151.150;2023-08-20T12:41:32;7.23;;;4.30;;
44046;SDS011;29713;-33.888;151.150;2023-08-20T12:44:02;6.23;;;3.80;;
44046;SDS011;29713;-33.888;151.150;2023-08-20T12:46:29;6.23;;;3.50;;
44046;SDS011;29713;-33.888;151.150;2023-08-20T12:48:56;4.77;;;3.33;;
44046;SDS011;29713;-33.888;151.150;2023-08-20T12:51:24;3.73;;;2.70;;
44046;SDS011;29713;-33.888;151.150;2023-08-20T12:53:52;5.17;;;3.10;;
44046;SDS011;29713;-33.888;151.150;2023-08-20T12:56:19;5.93;;;3.10;;
44046;SDS011;29713;-33.888;151.150;2023-08-20T12:58:46;6.77;;;2.97;;
44046;SDS011;29713;-33.888;151.150;2023-08-20T13:01:14;4.40;;;2.63;;
44046;SDS011;29713;-33.888;151.150;2023-08-20T13:03:42;5.37;;;2.80;;
44046;SDS011;29713;-33.888;151.150;2023-08-20T13:06:10;3.63;;;2.70;;
44046;SDS011;29713;-33.888;151.150;2023-08-20T13:08:37;5.13;;;2.80;;
44046;SDS011;29713;-33.888;151.150;2023-08-20T13:11:07;6.10;;;3.30;;
44046;SDS011;29713;-33.888;151.150;2023-08-20T13:13:37;3.30;;;2.37;;
44046;SDS011;29713;-33.888;151.150;2023-08-20T13:16:05;4.17;;;2.43;;
44046;SDS011;29713;-33.888;151.150;2023-08-20T13:18:32;3.17;;;2.40;;
44046;SDS011;29713;-33.888;151.150;2023-08-20T13:21:01;3.87;;;2.77;;
44046;SDS011;29713;-33.888;151.150;2023-08-20T13:23:29;3.90;;;2.37;;
44046;SDS011;29713;-33.888;151.150;2023-08-20T13:25:57;4.50;;;2.20;;
44046;SDS011;29713;-33.888;151.150;2023-08-20T13:28:24;3.63;;;2.63;;
44046;SDS011;29713;-33.888;151.150;2023-08-20T13:30:51;3.40;;;2.40;;
44046;SDS011;29713;-33.888;151.150;2023-08-20T13:33:18;3.27;;;2.60;;
44046;SDS011;29713;-33.888;151.150;2023-08-20T13:35:46;3.57;;;2.20;;
44046;SDS011;29713;-33.888;151.150;2023-08-20T13:38:13;3.63;;;2.33;;
44046;SDS011;29713;-33.888;151.150;2023-08-20T13:40:40;4.83;;;2.40;;
44046;SDS011;29713;-33.888;151.150;2023-08-20T13:43:08;4.40;;;2.50;;
44046;SDS011;29713;-33.888;151.150;2023-08-20T13:45:35;4.70;;;2.43;;
44046;SDS011;29713;-33.888;151.150;2023-08-20T13:48:02;3.67;;;2.47;;
44046;SDS011;29713;-33.888;151.150;2023-08-20T13:50:30;3.90;;;2.30;;
44046;SDS011;29713;-33.888;151.150;2023-08-20T13:52:57;7.27;;;2.30;;
44046;SDS011;29713;-33.888;151.150;2023-08-20T13:55:25;3.97;;;2.70;;
44046;SDS011;29713;-33.888;151.150;2023-08-20T13:57:52;6.70;;;2.63;;
44046;SDS011;29713;-33.888;151.150;2023-08-20T14:00:19;3.50;;;2.23;;
44046;SDS011;29713;-33.888;151.150;2023-08-20T14:02:47;4.87;;;2.47;;
44046;SDS011;29713;-33.888;151.150;2023-08-20T14:05:14;4.13;;;2.73;;
44046;SDS011;29713;-33.888;151.150;2023-08-20T14:07:41;4.63;;;2.40;;
44046;SDS011;29713;-33.888;151.150;2023-08-20T14:10:09;6.37;;;3.40;;
44046;SDS011;29713;-33.888;151.150;2023-08-20T14:12:36;5.33;;;3.23;;
44046;SDS011;29713;-33.888;151.150;2023-08-20T14:15:04;5.87;;;3.40;;
44046;SDS011;29713;-33.888;151.150;2023-08-20T14:17:31;5.37;;;3.10;;
44046;SDS011;29713;-33.888;151.150;2023-08-20T14:19:59;5.17;;;3.20;;
44046;SDS011;29713;-33.888;151.150;2023-08-20T14:22:26;3.93;;;2.90;;
44046;SDS011;29713;-33.888;151.150;2023-08-20T14:24:54;5.50;;;2.93;;
44046;SDS011;29713;-33.888;151.150;2023-08-20T14:27:21;4.67;;;2.87;;
44046;SDS011;29713;-33.888;151.150;2023-08-20T14:29:48;4.80;;;2.70;;
44046;SDS011;29713;-33.888;151.150;2023-08-20T14:32:16;4.77;;;2.70;;
44046;SDS011;29713;-33.888;151.150;2023-08-20T14:34:43;4.93;;;2.83;;
44046;SDS011;29713;-33.888;151.150;2023-08-20T14:37:10;4.97;;;2.83;;
44046;SDS011;29713;-33.888;151.150;2023-08-20T14:39:39;6.10;;;3.13;;